createdAt,value
2018-05-26T00:01:01.382Z,20.07
2018-05-26T00:03:30.449Z,20.17
2018-05-26T00:05:59.487Z,20.17
2018-05-26T00:08:27.942Z,20.27
2018-05-26T00:10:56.056Z,20.27
2018-05-26T00:13:25.314Z,20.27
2018-05-26T00:15:53.445Z,20.31
2018-05-26T00:18:21.549Z,20.25
2018-05-26T00:20:49.667Z,20.30
2018-05-26T00:23:17.824Z,20.27
2018-05-26T00:25:45.895Z,20.22
2018-05-26T00:28:19.572Z,20.26
2018-05-26T00:30:47.682Z,20.31
2018-05-26T00:33:15.780Z,20.21
2018-05-26T00:35:44.716Z,20.19
2018-05-26T00:38:13.704Z,20.22
2018-05-26T00:40:41.825Z,20.13
2018-05-26T00:43:10.800Z,20.27
2018-05-26T00:45:39.149Z,20.34
2018-05-26T00:48:07.261Z,20.29
2018-05-26T00:50:35.379Z,20.29
2018-05-26T00:53:03.497Z,20.23
2018-05-26T00:55:33.237Z,20.25
2018-05-26T00:58:01.456Z,20.03
2018-05-26T01:00:29.614Z,19.93
2018-05-26T01:02:57.712Z,19.87
2018-05-26T01:05:25.804Z,19.71
2018-05-26T01:07:53.965Z,19.55
2018-05-26T01:10:22.123Z,19.53
2018-05-26T01:12:50.227Z,19.65
2018-05-26T01:15:18.361Z,19.62
2018-05-26T01:17:46.809Z,19.80
2018-05-26T01:20:14.937Z,19.81
2018-05-26T01:22:43.520Z,19.83
2018-05-26T01:25:11.639Z,19.86
2018-05-26T01:27:39.867Z,19.80
2018-05-26T01:30:08.024Z,19.82
2018-05-26T01:32:36.145Z,19.68
2018-05-26T01:35:05.259Z,19.76
2018-05-26T01:37:33.373Z,19.75
2018-05-26T01:40:01.504Z,19.73
2018-05-26T01:55:29.631Z,19.68
2018-05-26T01:57:57.743Z,19.79
2018-05-26T02:00:25.841Z,19.87
2018-05-26T02:02:54.005Z,19.93
2018-05-26T02:05:22.571Z,19.87
2018-05-26T02:07:56.186Z,19.72
2018-05-26T02:10:24.282Z,19.69
2018-05-26T02:12:53.027Z,19.65
2018-05-26T02:15:22.093Z,19.60
2018-05-26T02:17:50.276Z,19.59
2018-05-26T02:20:19.177Z,19.68
2018-05-26T02:22:47.295Z,19.55
2018-05-26T02:25:15.405Z,19.56
2018-05-26T02:27:43.529Z,19.51
2018-05-26T02:30:12.235Z,19.49
2018-05-26T02:32:41.374Z,19.54
2018-05-26T02:35:09.494Z,19.49
2018-05-26T02:37:37.591Z,19.49
2018-05-26T02:40:06.442Z,19.44
2018-05-26T02:42:34.581Z,19.53
2018-05-26T02:45:02.690Z,19.46
2018-05-26T02:47:30.800Z,19.28
2018-05-26T02:49:58.960Z,19.28
2018-05-26T02:52:32.639Z,19.32
2018-05-26T02:55:00.766Z,19.36
2018-05-26T02:57:28.874Z,19.41
2018-05-26T02:59:56.987Z,19.45
2018-05-26T03:02:25.084Z,19.50
2018-05-26T03:04:58.787Z,19.52
2018-05-26T03:07:32.438Z,19.40
2018-05-26T03:10:06.856Z,19.47
2018-05-26T03:12:40.623Z,19.50
2018-05-26T03:15:08.184Z,19.51
2018-05-26T03:17:40.687Z,19.51
2018-05-26T03:20:08.811Z,19.49
2018-05-26T03:22:36.979Z,19.47
2018-05-26T03:38:01.124Z,19.53
2018-05-26T03:40:29.253Z,19.47
2018-05-26T03:42:57.363Z,19.51
2018-05-26T03:45:25.490Z,19.57
2018-05-26T03:47:53.645Z,19.55
2018-05-26T03:50:21.747Z,19.57
2018-05-26T03:52:49.881Z,19.60
2018-05-26T03:55:38.711Z,19.61
2018-05-26T03:58:18.665Z,19.56
2018-05-26T04:13:46.802Z,19.55
2018-05-26T04:16:15.785Z,19.55
2018-05-26T04:18:44.091Z,19.60
2018-05-26T04:21:12.249Z,19.57
2018-05-26T04:23:40.388Z,19.62
2018-05-26T04:26:08.491Z,19.62
2018-05-26T04:38:21.669Z,19.80
2018-05-26T04:40:49.806Z,19.86
2018-05-26T04:43:17.917Z,19.90
2018-05-26T04:58:46.395Z,19.94
2018-05-26T05:01:14.527Z,19.97
2018-05-26T05:03:42.701Z,20.02
2018-05-26T05:06:15.776Z,20.07
2018-05-26T05:08:43.873Z,20.15
2018-05-26T05:11:12.446Z,20.13
2018-05-26T05:13:40.606Z,20.15
2018-05-26T05:16:08.713Z,20.15
2018-05-26T05:18:36.835Z,20.12
2018-05-26T05:21:05.942Z,20.09
2018-05-26T05:23:34.960Z,20.13
2018-05-26T05:26:03.640Z,20.18
2018-05-26T05:28:32.249Z,20.15
2018-05-26T05:31:00.389Z,20.28
2018-05-26T05:33:28.499Z,20.29
2018-05-26T05:35:56.593Z,20.27
2018-05-26T05:38:25.025Z,20.35
2018-05-26T05:40:53.178Z,20.38
2018-05-26T05:43:21.590Z,20.40
2018-05-26T05:45:54.701Z,20.40
2018-05-26T05:48:22.801Z,20.42
2018-05-26T05:50:50.924Z,20.48
2018-05-26T05:53:19.901Z,20.51
2018-05-26T05:55:48.056Z,20.57
2018-05-26T05:58:16.169Z,20.63
2018-05-26T06:00:44.315Z,20.67
2018-05-26T06:03:12.478Z,20.65
2018-05-26T06:05:40.584Z,20.75
2018-05-26T06:08:08.698Z,20.75
2018-05-26T06:10:36.824Z,20.84
2018-05-26T06:13:05.859Z,20.86
2018-05-26T06:15:33.988Z,20.81
2018-05-26T06:18:02.470Z,20.82
2018-05-26T06:20:30.569Z,20.84
2018-05-26T06:22:58.721Z,20.82
2018-05-26T06:25:26.859Z,20.80
2018-05-26T06:27:55.480Z,20.78
2018-05-26T06:30:24.390Z,20.78
2018-05-26T06:32:53.052Z,20.85
2018-05-26T06:35:21.154Z,20.87
2018-05-26T06:37:49.255Z,20.97
2018-05-26T06:40:17.381Z,21.27
2018-05-26T06:42:45.491Z,21.85
2018-05-26T06:45:13.700Z,22.45
2018-05-26T06:47:41.838Z,22.86
2018-05-26T06:50:10.440Z,23.04
2018-05-26T06:52:39.425Z,23.49
2018-05-26T06:55:07.549Z,23.79
2018-05-26T06:57:35.672Z,24.07
2018-05-26T07:00:03.838Z,24.48
2018-05-26T07:02:31.965Z,24.58
2018-05-26T07:05:00.116Z,24.42
2018-05-26T07:07:28.221Z,24.58
2018-05-26T07:09:56.370Z,24.42
2018-05-26T07:12:24.479Z,24.19
2018-05-26T07:14:52.584Z,24.39
2018-05-26T07:17:22.274Z,24.97
2018-05-26T07:19:50.886Z,25.11
2018-05-26T07:22:19.013Z,25.10
2018-05-26T07:24:47.217Z,25.09
2018-05-26T07:27:15.399Z,24.99
2018-05-26T07:29:43.495Z,25.11
2018-05-26T07:32:11.880Z,25.11
2018-05-26T07:34:39.980Z,25.01
2018-05-26T07:37:08.400Z,24.87
2018-05-26T07:39:36.564Z,24.94
2018-05-26T07:42:04.752Z,25.27
2018-05-26T07:44:33.372Z,25.33
2018-05-26T07:47:01.512Z,25.32
2018-05-26T07:49:29.624Z,25.26
2018-05-26T07:51:57.777Z,25.18
2018-05-26T07:54:26.766Z,25.25
2018-05-26T07:56:54.925Z,25.30
2018-05-26T07:59:23.030Z,25.14
2018-05-26T08:01:51.180Z,24.99
2018-05-26T08:04:19.341Z,25.06
2018-05-26T08:06:47.444Z,25.06
2018-05-26T08:09:16.468Z,25.16
2018-05-26T08:11:44.583Z,24.98
2018-05-26T08:14:12.690Z,24.83
2018-05-26T08:16:40.828Z,24.81
2018-05-26T08:19:08.973Z,24.66
2018-05-26T08:21:37.075Z,24.51
2018-05-26T08:24:05.178Z,24.46
2018-05-26T08:26:33.341Z,24.57
2018-05-26T08:29:01.442Z,24.51
2018-05-26T08:31:30.491Z,24.51
2018-05-26T08:33:58.617Z,24.55
2018-05-26T08:36:26.759Z,24.50
2018-05-26T08:38:54.884Z,24.56
2018-05-26T08:41:23.014Z,24.49
2018-05-26T08:43:51.936Z,24.39
2018-05-26T08:46:20.043Z,24.41
2018-05-26T08:48:48.222Z,24.43
2018-05-26T08:51:16.321Z,24.48
2018-05-26T08:53:44.416Z,24.48
2018-05-26T08:56:12.535Z,24.48
2018-05-26T08:58:40.661Z,24.46
2018-05-26T09:01:09.568Z,24.47
2018-05-26T09:03:37.711Z,24.56
2018-05-26T09:06:05.817Z,24.58
2018-05-26T09:08:33.952Z,24.58
2018-05-26T09:11:02.065Z,24.58
2018-05-26T09:13:31.015Z,24.59
2018-05-26T09:15:59.163Z,24.70
2018-05-26T09:18:27.249Z,24.73
2018-05-26T09:20:55.359Z,24.75
2018-05-26T09:23:24.229Z,24.88
2018-05-26T09:25:52.351Z,24.89
2018-05-26T09:28:20.475Z,24.88
2018-05-26T09:30:48.624Z,24.90
2018-05-26T09:33:16.735Z,25.01
2018-05-26T09:35:45.403Z,25.15
2018-05-26T09:38:13.556Z,25.15
2018-05-26T09:40:41.708Z,25.16
2018-05-26T09:43:10.097Z,25.05
2018-05-26T09:45:43.829Z,25.02
2018-05-26T09:48:11.928Z,25.10
2018-05-26T09:50:40.039Z,25.11
2018-05-26T09:53:08.156Z,25.09
2018-05-26T09:55:36.259Z,25.14
2018-05-26T09:58:04.389Z,25.08
2018-05-26T10:00:32.501Z,25.10
2018-05-26T10:03:00.630Z,25.09
2018-05-26T10:05:28.759Z,25.05
2018-05-26T10:07:56.861Z,25.10
2018-05-26T10:10:24.981Z,25.11
2018-05-26T10:12:53.089Z,25.10
2018-05-26T10:15:21.194Z,25.11
2018-05-26T10:17:49.334Z,25.14
2018-05-26T10:20:17.708Z,25.20
2018-05-26T10:22:45.821Z,25.33
2018-05-26T10:25:14.029Z,25.44
2018-05-26T10:27:42.129Z,25.54
2018-05-26T10:30:10.257Z,25.48
2018-05-26T10:32:38.406Z,25.54
2018-05-26T10:35:06.505Z,25.49
2018-05-26T10:37:34.613Z,25.51
2018-05-26T10:40:02.792Z,25.41
2018-05-26T10:42:30.895Z,25.52
2018-05-26T10:44:58.999Z,25.64
2018-05-26T10:47:28.009Z,25.58
2018-05-26T10:49:56.124Z,25.56
2018-05-26T10:52:24.229Z,25.68
2018-05-26T10:54:52.329Z,25.74
2018-05-26T10:57:20.449Z,25.77
2018-05-26T10:59:48.613Z,25.82
2018-05-26T11:02:16.729Z,25.84
2018-05-26T11:04:50.447Z,25.88
2018-05-26T11:07:18.549Z,25.95
2018-05-26T11:09:46.654Z,25.82
2018-05-26T11:12:14.801Z,25.77
2018-05-26T11:14:42.947Z,25.88
2018-05-26T11:17:16.618Z,26.00
2018-05-26T11:19:50.162Z,26.07
2018-05-26T11:22:18.798Z,26.08
2018-05-26T11:24:46.927Z,26.06
2018-05-26T11:27:15.070Z,26.19
2018-05-26T11:29:43.189Z,26.21
2018-05-26T11:32:11.305Z,26.12
2018-05-26T11:34:39.428Z,26.15
2018-05-26T11:37:08.209Z,26.14
2018-05-26T11:39:36.320Z,26.17
2018-05-26T11:42:04.447Z,26.27
2018-05-26T11:44:33.350Z,26.13
2018-05-26T11:47:01.447Z,26.13
2018-05-26T11:49:29.561Z,26.12
2018-05-26T11:51:58.249Z,26.15
2018-05-26T11:54:26.361Z,26.13
2018-05-26T11:56:54.469Z,26.14
2018-05-26T11:59:22.641Z,26.19
2018-05-26T12:01:51.174Z,26.28
2018-05-26T12:04:19.264Z,26.34
2018-05-26T12:06:47.349Z,26.34
2018-05-26T12:09:15.469Z,26.43
2018-05-26T12:11:43.611Z,26.37
2018-05-26T12:14:11.701Z,26.34
2018-05-26T12:16:40.024Z,26.42
2018-05-26T12:19:08.172Z,26.48
2018-05-26T12:21:36.288Z,26.56
2018-05-26T12:24:04.787Z,26.65
2018-05-26T12:26:33.249Z,26.54
2018-05-26T12:29:06.989Z,26.52
2018-05-26T12:31:40.513Z,26.54
2018-05-26T12:34:08.649Z,26.62
2018-05-26T12:36:36.767Z,26.71
2018-05-26T12:39:05.653Z,26.76
2018-05-26T12:41:34.404Z,26.74
2018-05-26T12:44:02.593Z,26.71
2018-05-26T12:46:30.689Z,26.74
2018-05-26T12:48:58.917Z,26.78
2018-05-26T12:51:27.052Z,26.83
2018-05-26T12:53:55.153Z,26.83
2018-05-26T12:56:28.853Z,26.93
2018-05-26T12:58:56.991Z,26.81
2018-05-26T13:01:25.094Z,26.86
2018-05-26T13:03:54.890Z,26.94
2018-05-26T13:06:23.041Z,26.97
2018-05-26T13:08:51.231Z,26.91
2018-05-26T13:11:19.308Z,26.98
2018-05-26T13:13:47.441Z,26.99
2018-05-26T13:16:15.668Z,27.05
2018-05-26T13:18:49.445Z,27.04
2018-05-26T13:21:17.585Z,27.05
2018-05-26T13:23:45.742Z,27.08
2018-05-26T13:26:14.728Z,27.05
2018-05-26T13:28:42.847Z,27.01
2018-05-26T13:31:10.953Z,26.98
2018-05-26T13:46:39.385Z,26.80
2018-05-26T13:49:07.508Z,26.90
2018-05-26T13:51:36.190Z,27.01
2018-05-26T13:54:04.316Z,27.07
2018-05-26T13:56:32.482Z,27.13
2018-05-26T13:59:00.589Z,27.20
2018-05-26T14:01:28.713Z,27.22
2018-05-26T14:03:56.829Z,27.18
2018-05-26T14:06:24.977Z,27.15
2018-05-26T14:08:53.105Z,27.16
2018-05-26T14:11:21.239Z,27.15
2018-05-26T14:13:50.079Z,27.10
2018-05-26T14:16:18.220Z,27.13
2018-05-26T14:18:47.863Z,27.17
2018-05-26T14:21:16.197Z,27.12
2018-05-26T14:23:44.329Z,27.05
2018-05-26T14:26:13.045Z,27.11
2018-05-26T14:28:41.157Z,27.20
2018-05-26T14:31:09.783Z,27.39
2018-05-26T14:33:38.157Z,27.30
2018-05-26T14:36:06.318Z,27.28
2018-05-26T14:38:34.441Z,27.24
2018-05-26T14:54:02.564Z,27.35
2018-05-26T14:56:31.433Z,27.34
2018-05-26T14:58:59.533Z,27.39
2018-05-26T15:01:27.643Z,27.32
2018-05-26T15:03:55.797Z,27.23
2018-05-26T15:06:23.905Z,27.32
2018-05-26T15:08:52.641Z,27.29
2018-05-26T15:11:21.077Z,27.27
2018-05-26T15:13:49.189Z,27.38
2018-05-26T15:16:17.295Z,27.41
2018-05-26T15:18:46.001Z,27.47
2018-05-26T15:21:15.109Z,27.46
2018-05-26T15:23:43.273Z,27.45
2018-05-26T15:26:11.393Z,27.36
2018-05-26T15:28:39.494Z,27.38
2018-05-26T15:31:07.601Z,27.52
2018-05-26T15:33:37.003Z,27.48
2018-05-26T15:36:05.087Z,27.44
2018-05-26T15:38:33.265Z,27.51
2018-05-26T15:41:01.373Z,27.51
2018-05-26T15:43:29.469Z,27.61
2018-05-26T15:45:57.639Z,27.57
2018-05-26T15:48:26.671Z,27.54
2018-05-26T15:50:54.832Z,27.61
2018-05-26T15:53:22.960Z,27.56
2018-05-26T15:55:51.136Z,27.56
2018-05-26T15:58:19.252Z,27.55
2018-05-26T16:00:47.339Z,27.52
2018-05-26T16:03:15.442Z,27.55
2018-05-26T16:05:48.523Z,27.53
2018-05-26T16:08:16.690Z,27.56
2018-05-26T16:10:44.837Z,27.64
2018-05-26T16:13:12.917Z,27.72
2018-05-26T16:15:41.011Z,27.80
2018-05-26T16:18:09.121Z,27.79
2018-05-26T16:20:38.021Z,27.77
2018-05-26T16:23:06.755Z,27.77
2018-05-26T16:25:34.841Z,27.85
2018-05-26T16:28:02.936Z,27.80
2018-05-26T16:30:31.039Z,27.73
2018-05-26T16:32:59.941Z,27.73
2018-05-26T16:35:28.081Z,27.67
2018-05-26T16:50:56.221Z,27.65
2018-05-26T16:53:24.328Z,27.64
2018-05-26T16:55:52.434Z,27.73
2018-05-26T16:58:21.469Z,27.70
2018-05-26T17:00:49.603Z,27.71
2018-05-26T17:03:17.696Z,27.73
2018-05-26T17:05:46.069Z,27.74
2018-05-26T17:08:14.179Z,27.77
2018-05-26T17:10:42.315Z,27.78
2018-05-26T17:13:10.508Z,27.81
2018-05-26T17:15:38.689Z,27.87
2018-05-26T17:18:06.769Z,27.91
2018-05-26T17:20:34.938Z,27.87
2018-05-26T17:23:08.505Z,27.80
2018-05-26T17:25:36.610Z,27.79
2018-05-26T17:28:04.713Z,27.83
2018-05-26T17:30:33.727Z,27.84
2018-05-26T17:33:02.060Z,27.82
2018-05-26T17:35:30.140Z,27.82
2018-05-26T17:37:58.906Z,27.82
2018-05-26T17:40:26.988Z,27.81
2018-05-26T17:42:55.167Z,27.83
2018-05-26T17:45:23.289Z,27.78
2018-05-26T17:47:51.410Z,27.79
2018-05-26T17:50:19.501Z,27.76
2018-05-26T17:52:47.637Z,27.74
2018-05-26T17:55:15.722Z,27.71
2018-05-26T17:57:43.822Z,27.70
2018-05-26T18:00:12.293Z,27.70
2018-05-26T18:02:40.444Z,27.73
2018-05-26T18:05:08.534Z,27.69
2018-05-26T18:07:36.662Z,27.67
2018-05-26T18:10:04.754Z,27.64
2018-05-26T18:12:32.853Z,27.66
2018-05-26T18:15:01.020Z,27.61
2018-05-26T18:17:29.324Z,27.58
2018-05-26T18:19:57.426Z,27.57
2018-05-26T18:22:25.539Z,27.61
2018-05-26T18:24:53.627Z,27.59
2018-05-26T18:27:21.735Z,27.56
2018-05-26T18:29:49.917Z,27.52
2018-05-26T18:32:18.884Z,27.52
2018-05-26T18:34:47.087Z,27.53
2018-05-26T18:37:15.424Z,27.53
2018-05-26T18:39:43.546Z,27.52
2018-05-26T18:42:11.649Z,27.48
2018-05-26T18:44:40.479Z,27.47
2018-05-26T18:47:09.048Z,27.46
2018-05-26T18:49:37.145Z,27.46
2018-05-26T18:52:06.076Z,27.45
2018-05-26T18:54:35.169Z,27.46
2018-05-26T18:57:03.351Z,27.44
2018-05-26T18:59:31.514Z,27.39
2018-05-26T19:02:00.604Z,27.38
2018-05-26T19:04:28.706Z,27.34
2018-05-26T19:06:56.827Z,27.31
2018-05-26T19:09:24.954Z,27.29
2018-05-26T19:11:53.054Z,27.28
2018-05-26T19:14:21.164Z,27.27
2018-05-26T19:16:49.264Z,27.22
2018-05-26T19:19:17.355Z,27.21
2018-05-26T19:21:45.457Z,27.16
2018-05-26T19:24:13.552Z,27.16
2018-05-26T19:26:41.719Z,27.12
2018-05-26T19:29:09.795Z,27.08
2018-05-26T19:31:38.674Z,27.06
2018-05-26T19:34:07.446Z,27.00
2018-05-26T19:36:35.546Z,26.97
2018-05-26T19:39:04.370Z,26.92
2018-05-26T19:41:32.470Z,26.90
2018-05-26T19:44:01.338Z,26.87
2018-05-26T19:46:29.406Z,26.86
2018-05-26T19:48:57.512Z,26.85
2018-05-26T19:51:25.631Z,26.83
2018-05-26T19:53:58.690Z,26.78
2018-05-26T19:56:26.826Z,26.75
2018-05-26T19:58:55.410Z,26.72
2018-05-26T20:01:23.542Z,26.69
2018-05-26T20:03:51.664Z,26.66
2018-05-26T20:06:19.756Z,26.63
2018-05-26T20:08:49.185Z,26.59
2018-05-26T20:11:17.504Z,26.54
2018-05-26T20:13:45.625Z,26.50
2018-05-26T20:16:13.737Z,26.47
2018-05-26T20:18:41.862Z,26.41
2018-05-26T20:21:10.018Z,26.43
2018-05-26T20:23:38.167Z,26.39
2018-05-26T20:26:06.398Z,26.35
2018-05-26T20:28:34.734Z,26.30
2018-05-26T20:31:02.848Z,26.27
2018-05-26T20:33:32.674Z,26.25
2018-05-26T20:36:03.490Z,26.20
2018-05-26T20:38:34.748Z,26.18
2018-05-26T20:49:59.987Z,26.03
2018-05-26T20:52:28.106Z,26.02
2018-05-26T20:54:56.452Z,25.99
2018-05-26T20:57:25.302Z,25.97
2018-05-26T20:59:53.483Z,25.94
2018-05-26T21:02:21.533Z,25.91
2018-05-26T21:04:49.676Z,25.89
2018-05-26T21:07:17.806Z,25.84
2018-05-26T21:09:46.177Z,25.80
2018-05-26T21:12:14.288Z,25.81
2018-05-26T21:14:42.737Z,25.77
2018-05-26T21:17:10.954Z,25.73
2018-05-26T21:19:39.058Z,25.73
2018-05-26T21:22:07.195Z,25.70
2018-05-26T21:24:35.300Z,25.70
2018-05-26T21:27:03.449Z,25.68
2018-05-26T21:29:31.588Z,25.66
2018-05-26T21:31:59.694Z,25.64
2018-05-26T21:34:27.844Z,25.64
2018-05-26T21:36:55.941Z,25.60
2018-05-26T21:39:24.044Z,25.55
2018-05-26T21:41:52.170Z,25.55
2018-05-26T21:44:20.273Z,25.51
2018-05-26T21:46:48.362Z,25.52
2018-05-26T21:49:16.560Z,25.49
2018-05-26T21:51:44.657Z,25.50
2018-05-26T21:54:12.776Z,25.47
2018-05-26T21:56:40.905Z,25.45
2018-05-26T21:59:08.997Z,25.43
2018-05-26T22:01:37.101Z,25.37
2018-05-26T22:04:05.200Z,25.38
2018-05-26T22:06:33.291Z,25.35
2018-05-26T22:09:01.434Z,25.37
2018-05-26T22:11:29.536Z,25.31
2018-05-26T22:13:57.648Z,25.32
2018-05-26T22:16:25.753Z,25.26
2018-05-26T22:18:53.896Z,25.24
2018-05-26T22:21:21.989Z,25.20
2018-05-26T22:23:50.949Z,25.16
2018-05-26T22:26:19.050Z,25.17
2018-05-26T22:28:47.174Z,25.10
2018-05-26T22:31:15.275Z,25.06
2018-05-26T22:33:43.374Z,24.99
2018-05-26T22:36:11.482Z,24.83
2018-05-26T22:38:39.576Z,24.89
2018-05-26T22:41:07.698Z,24.84
2018-05-26T22:43:35.814Z,24.80
2018-05-26T22:46:03.944Z,24.76
2018-05-26T22:48:32.054Z,24.76
2018-05-26T22:51:00.465Z,24.68
2018-05-26T22:53:28.609Z,24.59
2018-05-26T22:55:56.717Z,24.67
2018-05-26T22:58:24.828Z,24.67
2018-05-26T23:00:52.934Z,24.59
2018-05-26T23:03:21.056Z,24.56
2018-05-26T23:05:49.296Z,24.50
2018-05-26T23:08:17.345Z,24.53
2018-05-26T23:10:45.470Z,24.41
2018-05-26T23:13:13.566Z,24.36
2018-05-26T23:15:41.660Z,24.39
2018-05-26T23:18:09.774Z,24.41
2018-05-26T23:20:37.876Z,24.34
2018-05-26T23:23:05.981Z,24.36
2018-05-26T23:25:34.097Z,24.32
2018-05-26T23:28:02.194Z,24.24
2018-05-26T23:30:30.290Z,24.20
2018-05-26T23:32:58.562Z,24.16
2018-05-26T23:35:26.662Z,24.08
2018-05-26T23:37:54.732Z,24.07
2018-05-26T23:40:22.856Z,24.03
2018-05-26T23:42:50.948Z,24.00
2018-05-26T23:45:19.068Z,23.98
2018-05-26T23:47:47.218Z,23.90
2018-05-26T23:50:15.353Z,23.89
2018-05-26T23:52:43.456Z,23.82
2018-05-26T23:55:11.572Z,23.80
2018-05-26T23:57:39.668Z,23.77
